createdAt,value
2018-12-10T00:00:20.643Z,8.20
2018-12-10T00:01:24.879Z,8.20
2018-12-10T00:02:29.166Z,8.20
2018-12-10T00:03:35.666Z,8.20
2018-12-10T00:04:40.804Z,8.20
2018-12-10T00:05:45.303Z,8.30
2018-12-10T00:06:49.486Z,8.30
2018-12-10T00:07:53.732Z,8.30
2018-12-10T00:08:57.996Z,8.30
2018-12-10T00:10:03.519Z,8.30
2018-12-10T00:11:08.027Z,8.30
2018-12-10T00:12:12.771Z,8.30
2018-12-10T00:13:17.072Z,8.30
2018-12-10T00:14:21.174Z,8.20
2018-12-10T00:15:25.278Z,8.20
2018-12-10T00:16:29.441Z,8.20
2018-12-10T00:17:33.641Z,8.20
2018-12-10T00:18:37.722Z,8.20
2018-12-10T00:19:42.013Z,8.20
2018-12-10T00:20:46.099Z,8.20
2018-12-10T00:21:50.177Z,8.30
2018-12-10T00:22:54.609Z,8.20
2018-12-10T00:23:58.782Z,8.30
2018-12-10T00:25:02.925Z,8.20
2018-12-10T00:26:07.059Z,8.20
2018-12-10T00:27:11.681Z,8.10
2018-12-10T00:28:15.997Z,8.20
2018-12-10T00:29:21.866Z,8.20
2018-12-10T00:30:27.200Z,8.30
2018-12-10T00:31:31.293Z,8.30
2018-12-10T00:32:35.423Z,8.20
2018-12-10T00:33:39.756Z,8.20
2018-12-10T00:34:43.833Z,8.30
2018-12-10T00:35:48.204Z,8.30
2018-12-10T00:36:52.316Z,8.30
2018-12-10T00:37:56.452Z,8.30
2018-12-10T00:39:00.508Z,8.20
2018-12-10T00:40:05.003Z,8.20
2018-12-10T00:41:09.075Z,8.20
2018-12-10T00:42:13.224Z,8.30
2018-12-10T00:43:17.347Z,8.30
2018-12-10T00:44:21.482Z,8.30
2018-12-10T00:45:26.510Z,8.30
2018-12-10T00:46:31.254Z,8.30
2018-12-10T00:47:35.765Z,8.30
2018-12-10T00:48:40.070Z,8.30
2018-12-10T00:49:44.529Z,8.20
2018-12-10T00:50:48.605Z,8.20
2018-12-10T00:51:52.684Z,8.20
2018-12-10T00:52:56.775Z,8.20
2018-12-10T00:54:01.254Z,8.10
2018-12-10T00:55:05.564Z,8.10
2018-12-10T00:56:09.692Z,8.10
2018-12-10T00:57:13.929Z,8.20
2018-12-10T00:58:18.024Z,8.20
2018-12-10T00:59:22.370Z,8.20
2018-12-10T01:00:26.478Z,8.20
2018-12-10T01:01:30.747Z,8.20
2018-12-10T01:02:34.874Z,8.20
2018-12-10T01:03:39.069Z,8.20
2018-12-10T01:04:43.121Z,8.20
2018-12-10T01:05:47.164Z,8.10
2018-12-10T01:06:51.239Z,8.20
2018-12-10T01:07:55.296Z,8.10
2018-12-10T01:08:59.544Z,8.10
2018-12-10T01:10:03.779Z,8.10
2018-12-10T01:11:08.280Z,8.00
2018-12-10T01:12:12.338Z,8.00
2018-12-10T01:13:16.461Z,8.00
2018-12-10T01:14:20.639Z,7.90
2018-12-10T01:15:24.738Z,7.90
2018-12-10T01:16:28.912Z,7.90
2018-12-10T01:17:33.067Z,7.90
2018-12-10T01:18:37.150Z,7.90
2018-12-10T01:19:41.285Z,8.00
2018-12-10T01:20:47.090Z,8.00
2018-12-10T01:21:51.249Z,8.00
2018-12-10T01:22:55.595Z,8.00
2018-12-10T01:23:59.896Z,8.00
2018-12-10T01:25:04.679Z,8.00
2018-12-10T01:26:09.107Z,7.90
2018-12-10T01:27:13.187Z,7.90
2018-12-10T01:28:17.227Z,7.90
2018-12-10T01:29:21.389Z,7.90
2018-12-10T01:30:26.566Z,7.90
2018-12-10T01:31:31.275Z,7.90
2018-12-10T01:32:35.384Z,7.90
2018-12-10T01:33:40.351Z,7.90
2018-12-10T01:34:45.779Z,7.90
2018-12-10T01:35:50.770Z,7.80
2018-12-10T01:36:55.149Z,7.90
2018-12-10T01:37:59.628Z,7.80
2018-12-10T01:39:04.734Z,7.80
2018-12-10T01:40:09.290Z,7.70
2018-12-10T01:41:13.897Z,7.80
2018-12-10T01:42:17.957Z,7.70
2018-12-10T01:43:22.032Z,7.70
2018-12-10T01:44:26.116Z,7.70
2018-12-10T01:45:30.215Z,7.70
2018-12-10T01:46:34.326Z,7.70
2018-12-10T01:47:38.516Z,7.80
2018-12-10T01:48:42.952Z,7.80
2018-12-10T01:49:47.393Z,7.80
2018-12-10T01:50:51.776Z,7.80
2018-12-10T01:51:55.836Z,7.70
2018-12-10T01:52:59.895Z,7.70
2018-12-10T01:54:04.094Z,7.70
2018-12-10T01:55:08.175Z,7.70
2018-12-10T01:56:12.245Z,7.70
2018-12-10T01:57:16.325Z,7.80
2018-12-10T01:58:20.415Z,7.80
2018-12-10T01:59:24.656Z,7.70
2018-12-10T02:00:28.716Z,7.70
2018-12-10T02:01:32.747Z,7.70
2018-12-10T02:02:37.076Z,7.70
2018-12-10T02:03:41.250Z,7.70
2018-12-10T02:04:45.372Z,7.60
2018-12-10T02:05:49.524Z,7.70
2018-12-10T02:06:53.757Z,7.70
2018-12-10T02:07:57.860Z,7.70
2018-12-10T02:09:02.330Z,7.70
2018-12-10T02:10:07.875Z,7.70
2018-12-10T02:11:11.973Z,7.70
2018-12-10T02:12:16.053Z,7.70
2018-12-10T02:13:20.191Z,7.70
2018-12-10T02:14:24.280Z,7.70
2018-12-10T02:15:28.380Z,7.70
2018-12-10T02:16:34.168Z,7.70
2018-12-10T02:17:39.712Z,7.70
2018-12-10T02:18:44.184Z,7.60
2018-12-10T02:19:48.380Z,7.70
2018-12-10T02:20:52.540Z,7.70
2018-12-10T02:21:56.880Z,7.60
2018-12-10T02:23:01.369Z,7.60
2018-12-10T02:24:05.467Z,7.60
2018-12-10T02:25:09.577Z,7.50
2018-12-10T02:26:13.989Z,7.60
2018-12-10T02:27:18.132Z,7.60
2018-12-10T02:28:28.025Z,7.60
2018-12-10T02:29:32.131Z,7.70
2018-12-10T02:30:36.193Z,7.70
2018-12-10T02:31:40.263Z,7.70
2018-12-10T02:32:44.575Z,7.70
2018-12-10T02:33:48.717Z,7.60
2018-12-10T02:34:53.145Z,7.60
2018-12-10T02:35:57.648Z,7.60
2018-12-10T02:37:01.768Z,7.60
2018-12-10T02:38:06.169Z,7.60
2018-12-10T02:39:10.196Z,7.60
2018-12-10T02:40:14.218Z,7.50
2018-12-10T02:41:18.280Z,7.50
2018-12-10T02:42:22.378Z,7.50
2018-12-10T02:43:26.518Z,7.60
2018-12-10T02:44:31.299Z,7.60
2018-12-10T02:45:35.766Z,7.60
2018-12-10T02:46:40.126Z,7.60
2018-12-10T02:47:44.377Z,7.60
2018-12-10T02:48:48.475Z,7.60
2018-12-10T02:49:53.545Z,7.60
2018-12-10T02:50:57.596Z,7.60
2018-12-10T02:52:01.959Z,7.60
2018-12-10T02:53:06.194Z,7.60
2018-12-10T02:54:10.247Z,7.50
2018-12-10T02:55:15.004Z,7.50
2018-12-10T02:56:19.332Z,7.50
2018-12-10T02:57:23.902Z,7.50
2018-12-10T02:58:27.901Z,7.50
2018-12-10T02:59:32.110Z,7.50
2018-12-10T03:00:36.299Z,7.50
2018-12-10T03:01:40.371Z,7.50
2018-12-10T03:02:44.638Z,7.50
2018-12-10T03:03:48.915Z,7.50
2018-12-10T03:04:53.019Z,7.50
2018-12-10T03:05:57.108Z,7.50
2018-12-10T03:07:01.193Z,7.50
2018-12-10T03:08:05.441Z,7.50
2018-12-10T03:09:09.509Z,7.40
2018-12-10T03:10:13.746Z,7.40
2018-12-10T03:11:18.015Z,7.40
2018-12-10T03:12:22.265Z,7.40
2018-12-10T03:13:27.146Z,7.40
2018-12-10T03:14:31.582Z,7.40
2018-12-10T03:15:35.761Z,7.40
2018-12-10T03:16:39.816Z,7.40
2018-12-10T03:17:43.905Z,7.40
2018-12-10T03:18:48.013Z,7.40
2018-12-10T03:19:52.433Z,7.50
2018-12-10T03:20:56.532Z,7.50
2018-12-10T03:22:00.619Z,7.40
2018-12-10T03:23:04.668Z,7.50
2018-12-10T03:24:08.751Z,7.50
2018-12-10T03:25:12.869Z,7.50
2018-12-10T03:26:16.976Z,7.50
2018-12-10T03:27:21.077Z,7.50
2018-12-10T03:28:25.204Z,7.40
2018-12-10T03:29:29.474Z,7.40
2018-12-10T03:30:34.324Z,7.40
2018-12-10T03:31:38.427Z,7.40
2018-12-10T03:32:42.776Z,7.30
2018-12-10T03:33:46.989Z,7.40
2018-12-10T03:34:51.047Z,7.40
2018-12-10T03:35:55.331Z,7.40
2018-12-10T03:37:12.454Z,7.40
2018-12-10T03:38:16.826Z,7.50
2018-12-10T03:39:21.072Z,7.40
2018-12-10T03:40:25.785Z,7.50
2018-12-10T03:41:30.152Z,7.50
2018-12-10T03:42:34.261Z,7.50
2018-12-10T03:43:38.768Z,7.50
2018-12-10T03:44:44.360Z,7.50
2018-12-10T03:45:48.868Z,7.40
2018-12-10T03:46:53.358Z,7.40
2018-12-10T03:47:57.439Z,7.40
2018-12-10T03:49:01.621Z,7.40
2018-12-10T03:50:07.817Z,7.40
2018-12-10T03:51:12.018Z,7.30
2018-12-10T03:52:16.066Z,7.30
2018-12-10T03:53:20.151Z,7.20
2018-12-10T03:54:24.533Z,7.20
2018-12-10T03:55:28.670Z,7.20
2018-12-10T03:56:32.802Z,7.10
2018-12-10T03:57:37.244Z,7.10
2018-12-10T03:58:41.329Z,7.10
2018-12-10T03:59:45.854Z,7.10
2018-12-10T04:00:49.918Z,7.10
2018-12-10T04:01:54.195Z,7.10
2018-12-10T04:02:58.580Z,7.10
2018-12-10T04:04:02.715Z,7.20
2018-12-10T04:05:07.150Z,7.20
2018-12-10T04:06:11.631Z,7.20
2018-12-10T04:07:15.775Z,7.20
2018-12-10T04:08:19.874Z,7.20
2018-12-10T04:09:24.432Z,7.20
2018-12-10T04:10:28.547Z,7.20
2018-12-10T04:11:32.637Z,7.20
2018-12-10T04:12:36.710Z,7.20
2018-12-10T04:13:41.083Z,7.20
2018-12-10T04:14:45.652Z,7.10
2018-12-10T04:15:49.855Z,7.20
2018-12-10T04:16:53.912Z,7.10
2018-12-10T04:17:58.066Z,7.10
2018-12-10T04:19:02.394Z,7.20
2018-12-10T04:20:07.478Z,7.20
2018-12-10T04:21:11.757Z,7.20
2018-12-10T04:22:16.262Z,7.20
2018-12-10T04:23:20.957Z,7.20
2018-12-10T04:24:25.041Z,7.20
2018-12-10T04:25:29.280Z,7.20
2018-12-10T04:26:33.316Z,7.10
2018-12-10T04:27:38.286Z,7.10
2018-12-10T04:28:42.357Z,7.10
2018-12-10T04:29:46.470Z,7.10
2018-12-10T04:30:50.961Z,7.20
2018-12-10T04:31:55.492Z,7.10
2018-12-10T04:33:00.009Z,7.10
2018-12-10T04:34:04.770Z,7.10
2018-12-10T04:35:09.020Z,7.10
2018-12-10T04:36:13.394Z,7.20
2018-12-10T04:37:17.433Z,7.20
2018-12-10T04:38:21.534Z,7.20
2018-12-10T04:39:25.556Z,7.20
2018-12-10T04:40:29.638Z,7.20
2018-12-10T04:41:33.755Z,7.20
2018-12-10T04:42:38.287Z,7.20
2018-12-10T04:43:42.356Z,7.20
2018-12-10T04:44:46.705Z,7.30
2018-12-10T04:45:50.827Z,7.30
2018-12-10T04:47:36.393Z,7.30
2018-12-10T04:48:40.947Z,7.30
2018-12-10T04:49:45.011Z,7.30
2018-12-10T04:50:50.041Z,7.30
2018-12-10T04:51:54.337Z,7.30
2018-12-10T04:52:58.939Z,7.30
2018-12-10T04:54:03.197Z,7.30
2018-12-10T04:55:07.837Z,7.30
2018-12-10T04:56:12.442Z,7.30
2018-12-10T04:57:17.724Z,7.30
2018-12-10T04:58:24.043Z,7.30
2018-12-10T04:59:28.284Z,7.30
2018-12-10T05:00:32.484Z,7.30
2018-12-10T05:01:36.580Z,7.20
2018-12-10T05:02:40.730Z,7.30
2018-12-10T05:03:45.772Z,7.30
2018-12-10T05:04:49.864Z,7.40
2018-12-10T05:05:53.984Z,7.40
2018-12-10T05:06:58.275Z,7.40
2018-12-10T05:08:02.352Z,7.40
2018-12-10T05:09:07.611Z,7.30
2018-12-10T05:10:12.016Z,7.30
2018-12-10T05:11:17.029Z,7.30
2018-12-10T05:12:22.141Z,7.30
2018-12-10T05:13:29.170Z,7.30
2018-12-10T05:14:34.802Z,7.30
2018-12-10T05:15:41.088Z,7.30
2018-12-10T05:16:46.367Z,7.30
2018-12-10T05:17:52.090Z,7.30
2018-12-10T05:18:57.080Z,7.30
2018-12-10T05:20:02.357Z,7.30
2018-12-10T05:21:07.212Z,7.30
2018-12-10T05:22:11.958Z,7.30
2018-12-10T05:23:16.618Z,7.30
2018-12-10T05:24:21.245Z,7.30
2018-12-10T05:25:25.982Z,7.30
2018-12-10T05:26:30.767Z,7.30
2018-12-10T05:27:35.296Z,7.30
2018-12-10T05:28:40.365Z,7.30
2018-12-10T05:29:44.726Z,7.20
2018-12-10T05:30:49.009Z,7.20
2018-12-10T05:31:53.328Z,7.20
2018-12-10T05:32:57.681Z,7.20
2018-12-10T05:34:01.954Z,7.20
2018-12-10T05:35:06.963Z,7.20
2018-12-10T05:36:11.220Z,7.20
2018-12-10T05:37:15.815Z,7.30
2018-12-10T05:38:23.924Z,7.30
2018-12-10T05:39:29.268Z,7.30
2018-12-10T05:40:33.825Z,7.30
2018-12-10T05:41:39.175Z,7.30
2018-12-10T05:42:43.436Z,7.30
2018-12-10T05:43:48.088Z,7.20
2018-12-10T05:44:53.828Z,7.20
2018-12-10T05:45:58.259Z,7.20
2018-12-10T05:47:02.785Z,7.10
2018-12-10T05:48:07.524Z,7.10
2018-12-10T05:49:12.515Z,7.10
2018-12-10T05:50:17.886Z,7.10
2018-12-10T05:51:24.169Z,7.10
2018-12-10T05:52:29.823Z,7.10
2018-12-10T05:53:36.703Z,7.10
2018-12-10T05:54:41.156Z,7.00
2018-12-10T05:55:45.437Z,7.00
2018-12-10T05:56:50.199Z,7.00
2018-12-10T05:57:55.768Z,7.00
2018-12-10T05:58:59.850Z,7.00
2018-12-10T06:00:05.604Z,7.00
2018-12-10T06:01:10.395Z,7.00
2018-12-10T06:02:14.995Z,7.00
2018-12-10T06:03:20.099Z,7.00
2018-12-10T06:04:24.260Z,7.00
2018-12-10T06:05:29.020Z,7.00
2018-12-10T06:06:33.429Z,7.00
2018-12-10T06:07:41.087Z,7.10
2018-12-10T06:08:47.280Z,7.10
2018-12-10T06:09:51.697Z,7.10
2018-12-10T06:11:00.316Z,7.10
2018-12-10T06:12:05.628Z,7.10
2018-12-10T06:13:10.696Z,7.10
2018-12-10T06:14:14.792Z,7.10
2018-12-10T06:15:21.461Z,7.20
2018-12-10T06:16:26.156Z,7.20
2018-12-10T06:17:30.508Z,7.20
2018-12-10T06:18:34.743Z,7.20
2018-12-10T06:19:39.320Z,7.20
2018-12-10T06:20:43.321Z,7.20
2018-12-10T06:21:47.807Z,7.20
2018-12-10T06:22:52.495Z,7.20
2018-12-10T06:23:56.686Z,7.30
2018-12-10T06:25:03.273Z,7.30
2018-12-10T06:26:08.705Z,7.20
2018-12-10T06:27:14.237Z,7.20
2018-12-10T06:28:18.632Z,7.20
2018-12-10T06:29:23.347Z,7.30
2018-12-10T06:30:28.431Z,7.20
2018-12-10T06:31:37.789Z,7.20
2018-12-10T06:32:43.332Z,7.30
2018-12-10T06:33:48.044Z,7.20
2018-12-10T06:34:53.627Z,7.30
2018-12-10T06:35:59.365Z,7.30
2018-12-10T06:37:03.861Z,7.30
2018-12-10T06:38:09.801Z,7.20
2018-12-10T06:39:14.264Z,7.20
2018-12-10T06:40:18.441Z,6.90
2018-12-10T06:41:23.044Z,7.10
2018-12-10T06:42:28.665Z,7.10
2018-12-10T06:43:33.233Z,7.00
2018-12-10T06:44:39.197Z,7.00
2018-12-10T06:45:44.286Z,7.00
2018-12-10T06:46:49.259Z,7.00
2018-12-10T06:47:53.584Z,7.00
2018-12-10T06:48:57.781Z,6.90
2018-12-10T06:50:03.259Z,6.90
2018-12-10T06:51:07.435Z,6.90
2018-12-10T06:52:11.657Z,6.90
2018-12-10T06:53:17.468Z,7.00
2018-12-10T06:54:22.391Z,7.00
2018-12-10T06:55:26.523Z,7.10
2018-12-10T06:56:30.700Z,7.10
2018-12-10T06:57:34.767Z,7.00
2018-12-10T06:58:39.918Z,7.00
2018-12-10T06:59:48.171Z,7.00
2018-12-10T07:00:54.378Z,7.00
2018-12-10T07:02:02.670Z,7.00
2018-12-10T07:03:07.304Z,7.00
2018-12-10T07:04:11.720Z,6.90
2018-12-10T07:05:16.240Z,6.90
2018-12-10T07:06:22.042Z,6.90
2018-12-10T07:07:32.365Z,6.90
2018-12-10T07:08:37.308Z,6.90
2018-12-10T07:09:42.796Z,6.90
2018-12-10T07:10:46.931Z,6.90
2018-12-10T07:11:51.157Z,7.00
2018-12-10T07:12:55.236Z,7.00
2018-12-10T07:13:59.404Z,7.00
2018-12-10T07:15:03.733Z,7.00
2018-12-10T07:16:10.923Z,7.00
2018-12-10T07:17:19.988Z,7.00
2018-12-10T07:18:26.790Z,7.00
2018-12-10T07:19:43.680Z,7.00
2018-12-10T07:21:09.527Z,7.00
2018-12-10T07:22:14.329Z,7.00
2018-12-10T07:23:20.675Z,7.00
2018-12-10T07:24:25.689Z,7.10
2018-12-10T07:25:34.067Z,7.20
2018-12-10T07:26:42.188Z,7.10
2018-12-10T07:27:48.742Z,7.10
2018-12-10T07:28:55.240Z,7.10
2018-12-10T07:30:00.435Z,7.00
2018-12-10T07:31:04.799Z,7.00
2018-12-10T07:32:08.967Z,7.00
2018-12-10T07:33:13.504Z,7.00
2018-12-10T07:34:17.741Z,7.00
2018-12-10T07:35:25.487Z,7.00
2018-12-10T07:36:30.211Z,7.00
2018-12-10T07:37:37.414Z,7.00
2018-12-10T07:38:43.501Z,7.10
2018-12-10T07:39:47.841Z,7.10
2018-12-10T07:40:52.308Z,7.10
2018-12-10T07:41:59.504Z,7.10
2018-12-10T07:43:03.876Z,7.10
2018-12-10T07:44:09.517Z,7.10
2018-12-10T07:45:15.260Z,7.00
2018-12-10T07:46:29.188Z,6.80
2018-12-10T07:47:34.997Z,7.00
2018-12-10T07:48:42.532Z,7.00
2018-12-10T07:49:50.634Z,7.10
2018-12-10T07:51:01.624Z,7.10
2018-12-10T07:52:06.874Z,7.10
2018-12-10T07:53:11.187Z,7.20
2018-12-10T07:54:15.440Z,7.20
2018-12-10T07:55:20.135Z,7.20
2018-12-10T07:56:29.008Z,7.10
2018-12-10T07:57:31.097Z,7.10
2018-12-10T07:58:35.526Z,7.10
2018-12-10T07:59:40.149Z,7.10
2018-12-10T08:00:44.541Z,7.10
2018-12-10T08:01:50.777Z,7.00
2018-12-10T08:02:57.173Z,7.00
2018-12-10T08:04:01.514Z,7.00
2018-12-10T08:05:12.259Z,7.00
2018-12-10T08:06:17.079Z,7.00
2018-12-10T08:07:24.316Z,7.00
2018-12-10T08:08:34.265Z,7.00
2018-12-10T08:09:42.304Z,7.00
2018-12-10T08:10:48.756Z,7.00
2018-12-10T08:11:53.192Z,7.00
2018-12-10T08:13:14.385Z,7.00
2018-12-10T08:14:19.526Z,7.00
2018-12-10T08:15:27.305Z,7.00
2018-12-10T08:16:35.429Z,7.00
2018-12-10T08:17:40.795Z,7.00
2018-12-10T08:18:47.524Z,6.90
2018-12-10T08:19:53.163Z,6.90
2018-12-10T08:21:04.927Z,6.90
2018-12-10T08:22:10.714Z,6.90
2018-12-10T08:23:15.603Z,7.00
2018-12-10T08:24:20.399Z,7.00
2018-12-10T08:25:26.311Z,7.00
2018-12-10T08:26:33.240Z,7.00
2018-12-10T08:27:40.076Z,7.00
2018-12-10T08:28:45.002Z,7.00
2018-12-10T08:29:58.321Z,7.00
2018-12-10T08:31:04.323Z,7.00
2018-12-10T08:32:10.834Z,7.00
2018-12-10T08:33:16.304Z,7.10
2018-12-10T08:34:24.678Z,7.10
2018-12-10T08:35:29.920Z,7.10
2018-12-10T08:36:36.021Z,7.20
2018-12-10T08:37:40.664Z,7.20
2018-12-10T08:40:15.795Z,7.20
2018-12-10T08:41:23.526Z,7.20
2018-12-10T08:42:36.501Z,7.30
2018-12-10T08:43:43.115Z,7.30
2018-12-10T08:44:50.795Z,7.20
2018-12-10T08:45:56.218Z,7.10
2018-12-10T08:47:01.092Z,7.10
2018-12-10T08:48:05.473Z,7.20
2018-12-10T08:49:10.141Z,7.20
2018-12-10T08:50:19.326Z,7.20
2018-12-10T08:51:23.809Z,7.20
2018-12-10T08:52:28.063Z,7.20
2018-12-10T08:53:34.119Z,7.20
2018-12-10T08:54:39.450Z,7.20
2018-12-10T08:55:44.683Z,7.20
2018-12-10T08:56:50.945Z,7.20
2018-12-10T08:57:55.636Z,7.10
2018-12-10T08:58:59.849Z,7.10
2018-12-10T09:00:04.561Z,7.20
2018-12-10T09:01:10.177Z,7.20
2018-12-10T09:02:15.790Z,7.20
2018-12-10T09:03:20.433Z,7.20
2018-12-10T09:04:28.720Z,7.20
2018-12-10T09:05:34.248Z,7.20
2018-12-10T09:06:39.001Z,7.20
2018-12-10T09:07:43.325Z,7.20
2018-12-10T09:09:18.333Z,7.20
2018-12-10T09:10:41.200Z,7.20
2018-12-10T09:11:48.393Z,7.20
2018-12-10T09:12:56.361Z,7.20
2018-12-10T09:14:03.448Z,7.20
2018-12-10T09:15:38.409Z,7.30
2018-12-10T09:16:42.817Z,7.20
2018-12-10T09:17:47.324Z,7.30
2018-12-10T09:18:52.710Z,7.30
2018-12-10T09:19:57.920Z,7.30
2018-12-10T09:21:02.766Z,7.30
2018-12-10T09:22:07.139Z,7.40
2018-12-10T09:23:12.446Z,7.40
2018-12-10T09:24:17.175Z,7.40
2018-12-10T09:25:24.707Z,7.40
2018-12-10T09:26:31.089Z,7.30
2018-12-10T09:27:36.030Z,7.30
2018-12-10T09:28:40.760Z,7.30
2018-12-10T09:29:48.440Z,7.30
2018-12-10T09:30:53.730Z,7.20
2018-12-10T09:31:58.367Z,7.20
2018-12-10T09:33:05.026Z,7.30
2018-12-10T09:34:09.811Z,7.30
2018-12-10T09:35:14.758Z,7.30
2018-12-10T09:36:19.423Z,7.30
2018-12-10T09:37:25.254Z,7.20
2018-12-10T09:38:31.767Z,7.20
2018-12-10T09:39:38.355Z,7.20
2018-12-10T09:40:43.720Z,7.10
2018-12-10T09:41:48.477Z,7.10
2018-12-10T09:42:52.883Z,7.10
2018-12-10T09:43:58.216Z,7.10
2018-12-10T09:45:03.405Z,7.10
2018-12-10T09:46:07.777Z,7.10
2018-12-10T09:47:14.337Z,7.10
2018-12-10T09:48:18.812Z,7.10
2018-12-10T09:49:24.181Z,7.10
2018-12-10T09:50:28.965Z,7.10
2018-12-10T09:51:34.047Z,7.20
2018-12-10T09:52:41.618Z,7.20
2018-12-10T09:53:45.932Z,7.30
2018-12-10T09:54:52.601Z,7.30
2018-12-10T09:55:58.081Z,7.30
2018-12-10T09:57:03.321Z,7.40
2018-12-10T09:58:07.635Z,7.30
2018-12-10T09:59:11.884Z,7.40
2018-12-10T10:00:16.160Z,7.40
2018-12-10T10:01:20.418Z,7.30
2018-12-10T10:02:24.498Z,7.40
2018-12-10T10:03:29.850Z,7.40
2018-12-10T10:04:38.442Z,7.50
2018-12-10T10:05:42.773Z,7.40
2018-12-10T10:06:47.920Z,7.40
2018-12-10T10:07:53.358Z,7.50
2018-12-10T10:08:57.763Z,7.50
2018-12-10T10:10:02.503Z,7.60
2018-12-10T10:11:06.692Z,7.60
2018-12-10T10:12:10.897Z,7.60
2018-12-10T10:13:15.602Z,7.50
2018-12-10T10:14:23.232Z,7.50
2018-12-10T10:15:29.240Z,7.50
2018-12-10T10:16:37.071Z,7.60
2018-12-10T10:17:42.351Z,7.60
2018-12-10T10:18:47.716Z,7.60
2018-12-10T10:19:53.905Z,7.60
2018-12-10T10:20:58.586Z,7.60
2018-12-10T10:22:02.772Z,7.60
2018-12-10T10:23:06.855Z,7.60
2018-12-10T10:24:11.610Z,7.60
2018-12-10T10:25:15.692Z,7.60
2018-12-10T10:26:20.094Z,7.60
2018-12-10T10:27:25.420Z,7.60
2018-12-10T10:28:31.524Z,7.70
2018-12-10T10:29:35.736Z,7.80
2018-12-10T10:30:43.986Z,7.80
2018-12-10T10:31:48.085Z,7.80
2018-12-10T10:32:52.344Z,7.80
2018-12-10T10:33:56.910Z,7.80
2018-12-10T10:35:01.260Z,7.90
2018-12-10T10:36:11.980Z,7.90
2018-12-10T10:37:16.775Z,7.90
2018-12-10T10:38:21.023Z,7.90
2018-12-10T10:39:26.561Z,8.00
2018-12-10T10:40:32.315Z,8.10
2018-12-10T10:41:36.366Z,8.10
2018-12-10T10:42:46.385Z,8.10
2018-12-10T10:43:50.520Z,8.10
2018-12-10T10:44:55.151Z,8.20
2018-12-10T10:45:59.606Z,8.20
2018-12-10T10:47:04.765Z,8.20
2018-12-10T10:48:08.862Z,8.20
2018-12-10T10:49:13.060Z,8.20
2018-12-10T10:50:17.853Z,8.20
2018-12-10T10:51:22.294Z,8.30
2018-12-10T10:52:26.533Z,8.20
2018-12-10T10:53:31.448Z,8.20
2018-12-10T10:54:35.888Z,8.20
2018-12-10T10:55:40.245Z,8.20
2018-12-10T10:56:45.777Z,8.20
2018-12-10T10:57:52.380Z,8.10
2018-12-10T10:58:59.603Z,8.20
2018-12-10T11:00:07.145Z,8.20
2018-12-10T11:01:16.818Z,8.20
2018-12-10T11:02:26.123Z,8.20
2018-12-10T11:03:37.424Z,8.20
2018-12-10T11:04:42.465Z,8.20
2018-12-10T11:05:47.321Z,8.10
2018-12-10T11:06:51.634Z,8.10
2018-12-10T11:07:55.816Z,8.00
2018-12-10T11:09:00.203Z,8.00
2018-12-10T11:10:04.982Z,8.00
2018-12-10T11:11:09.199Z,7.90
2018-12-10T11:12:13.486Z,7.90
2018-12-10T11:13:19.150Z,7.90
2018-12-10T11:14:23.348Z,7.90
2018-12-10T11:15:28.251Z,7.90
2018-12-10T11:16:37.975Z,7.90
2018-12-10T11:17:43.072Z,7.90
2018-12-10T11:18:47.424Z,7.90
2018-12-10T11:19:51.903Z,7.90
2018-12-10T11:20:57.082Z,7.90
2018-12-10T11:22:03.090Z,7.90
2018-12-10T11:23:08.189Z,7.90
2018-12-10T11:24:12.728Z,7.80
2018-12-10T11:25:23.872Z,7.80
2018-12-10T11:26:32.569Z,7.80
2018-12-10T11:27:40.082Z,7.90
2018-12-10T11:28:48.099Z,7.90
2018-12-10T11:29:55.475Z,7.90
2018-12-10T11:31:00.783Z,7.90
2018-12-10T11:32:06.559Z,7.90
2018-12-10T11:33:14.000Z,7.90
2018-12-10T11:34:20.319Z,7.90
2018-12-10T11:35:28.718Z,7.90
2018-12-10T11:36:33.602Z,7.90
2018-12-10T11:37:39.495Z,7.90
2018-12-10T11:38:51.994Z,7.80
2018-12-10T11:39:58.256Z,7.80
2018-12-10T11:41:05.410Z,7.80
2018-12-10T11:42:17.268Z,7.90
2018-12-10T11:43:25.280Z,7.90
2018-12-10T11:44:30.550Z,7.90
2018-12-10T11:45:36.496Z,7.80
2018-12-10T11:46:44.084Z,7.90
2018-12-10T11:47:50.477Z,7.90
2018-12-10T11:48:57.543Z,7.80
2018-12-10T11:50:03.559Z,7.80
2018-12-10T11:51:09.195Z,7.70
2018-12-10T11:52:19.870Z,7.70
2018-12-10T11:53:26.469Z,7.70
2018-12-10T11:54:32.644Z,7.70
2018-12-10T11:55:39.870Z,7.70
2018-12-10T11:56:45.715Z,7.70
2018-12-10T11:57:51.818Z,7.60
2018-12-10T11:58:57.972Z,7.60
2018-12-10T12:00:03.453Z,7.60
2018-12-10T12:01:10.331Z,7.60
2018-12-10T12:02:18.108Z,7.60
2018-12-10T12:03:23.468Z,7.70
2018-12-10T12:04:27.854Z,7.70
2018-12-10T12:05:32.004Z,7.80
2018-12-10T12:06:38.469Z,7.80
2018-12-10T12:07:42.843Z,7.80
2018-12-10T12:08:48.353Z,7.80
2018-12-10T12:10:00.292Z,7.90
2018-12-10T12:11:05.201Z,7.90
2018-12-10T12:12:09.763Z,7.80
2018-12-10T12:13:14.213Z,7.90
2018-12-10T12:14:19.185Z,7.90
2018-12-10T12:15:23.316Z,7.90
2018-12-10T12:16:27.646Z,7.90
2018-12-10T12:17:31.730Z,7.80
2018-12-10T12:18:37.317Z,7.90
2018-12-10T12:19:41.572Z,8.00
2018-12-10T12:20:47.210Z,7.90
2018-12-10T12:21:52.088Z,7.90
2018-12-10T12:22:57.198Z,7.90
2018-12-10T12:24:02.792Z,7.90
2018-12-10T12:25:09.312Z,7.80
2018-12-10T12:26:14.600Z,7.80
2018-12-10T12:27:20.350Z,7.80
2018-12-10T12:28:24.603Z,7.70
2018-12-10T12:29:32.434Z,7.70
2018-12-10T12:30:37.235Z,7.70
2018-12-10T12:31:42.256Z,7.70
2018-12-10T12:32:47.348Z,7.70
2018-12-10T12:33:51.644Z,7.70
2018-12-10T12:34:57.704Z,7.70
2018-12-10T12:36:02.237Z,7.70
2018-12-10T12:37:06.361Z,7.70
2018-12-10T12:38:10.490Z,7.80
2018-12-10T12:39:14.968Z,7.80
2018-12-10T12:40:19.436Z,7.80
2018-12-10T12:41:25.498Z,7.80
2018-12-10T12:42:30.970Z,7.80
2018-12-10T12:43:35.710Z,7.80
2018-12-10T12:44:40.472Z,7.80
2018-12-10T12:45:47.511Z,7.80
2018-12-10T12:46:53.339Z,7.90
2018-12-10T12:47:59.515Z,7.80
2018-12-10T12:49:04.622Z,7.80
2018-12-10T12:50:10.187Z,7.80
2018-12-10T12:51:16.740Z,7.80
2018-12-10T12:52:21.201Z,7.80
2018-12-10T12:53:26.152Z,7.70
2018-12-10T12:54:31.612Z,7.70
2018-12-10T12:55:36.717Z,7.60
2018-12-10T12:56:41.198Z,7.60
2018-12-10T12:57:46.199Z,7.60
2018-12-10T12:58:57.752Z,7.50
2018-12-10T13:00:03.468Z,7.50
2018-12-10T13:01:11.095Z,7.50
2018-12-10T13:02:16.235Z,7.50
2018-12-10T13:03:21.496Z,7.50
2018-12-10T13:04:27.636Z,7.50
2018-12-10T13:05:38.566Z,7.50
2018-12-10T13:06:45.901Z,7.50
2018-12-10T13:07:54.633Z,7.40
2018-12-10T13:08:59.826Z,7.40
2018-12-10T13:10:04.746Z,7.40
2018-12-10T13:11:08.964Z,7.50
2018-12-10T13:12:24.201Z,7.50
2018-12-10T13:13:31.107Z,7.50
2018-12-10T13:14:36.256Z,7.50
2018-12-10T13:15:41.028Z,7.40
2018-12-10T13:16:49.349Z,7.50
2018-12-10T13:17:56.095Z,7.50
2018-12-10T13:19:00.716Z,7.50
2018-12-10T13:20:05.955Z,7.50
2018-12-10T13:21:10.112Z,7.50
2018-12-10T13:22:15.652Z,7.50
2018-12-10T13:23:20.036Z,7.50
2018-12-10T13:24:24.570Z,7.50
2018-12-10T13:25:29.075Z,7.50
2018-12-10T13:26:33.576Z,7.50
2018-12-10T13:27:38.952Z,7.50
2018-12-10T13:28:44.238Z,7.60
2018-12-10T13:29:48.392Z,7.60
2018-12-10T13:30:54.868Z,7.60
2018-12-10T13:32:00.240Z,7.60
2018-12-10T13:33:05.675Z,7.60
2018-12-10T13:34:10.120Z,7.60
2018-12-10T13:35:14.507Z,7.70
2018-12-10T13:36:20.232Z,7.70
2018-12-10T13:37:24.285Z,7.70
2018-12-10T13:38:36.880Z,7.70
2018-12-10T13:39:39.953Z,7.70
2018-12-10T13:40:44.842Z,7.70
2018-12-10T13:41:50.281Z,7.70
2018-12-10T13:42:54.919Z,7.70
2018-12-10T13:44:00.196Z,7.60
2018-12-10T13:45:04.686Z,7.60
2018-12-10T13:46:09.652Z,7.60
2018-12-10T13:47:16.562Z,7.60
2018-12-10T13:48:20.717Z,7.70
2018-12-10T13:49:25.436Z,7.70
2018-12-10T13:50:30.140Z,7.70
2018-12-10T13:51:37.194Z,7.70
2018-12-10T13:52:41.717Z,7.70
2018-12-10T13:53:47.005Z,7.70
2018-12-10T13:54:51.598Z,7.60
2018-12-10T13:55:56.001Z,7.60
2018-12-10T13:57:00.717Z,7.60
2018-12-10T13:58:05.300Z,7.60
2018-12-10T13:59:10.522Z,7.50
2018-12-10T14:00:15.504Z,7.50
2018-12-10T14:01:20.182Z,7.50
2018-12-10T14:02:24.754Z,7.50
2018-12-10T14:03:32.790Z,7.60
2018-12-10T14:04:45.096Z,7.60
2018-12-10T14:05:51.788Z,7.60
2018-12-10T14:06:56.222Z,7.60
2018-12-10T14:08:00.326Z,7.60
2018-12-10T14:09:08.419Z,7.60
2018-12-10T14:10:13.755Z,7.60
2018-12-10T14:11:21.228Z,7.60
2018-12-10T14:12:26.345Z,7.60
2018-12-10T14:13:31.029Z,7.60
2018-12-10T14:14:36.023Z,7.60
2018-12-10T14:15:45.603Z,7.70
2018-12-10T14:16:52.501Z,7.70
2018-12-10T14:17:57.767Z,7.70
2018-12-10T14:19:02.695Z,7.70
2018-12-10T14:20:08.107Z,7.70
2018-12-10T14:21:12.813Z,7.70
2018-12-10T14:22:17.052Z,7.60
2018-12-10T14:23:21.126Z,7.70
2018-12-10T14:24:26.239Z,7.70
2018-12-10T14:25:30.551Z,7.70
2018-12-10T14:26:35.561Z,7.60
2018-12-10T14:27:40.980Z,7.60
2018-12-10T14:28:46.935Z,7.60
2018-12-10T14:29:53.204Z,7.60
2018-12-10T14:30:57.973Z,7.60
2018-12-10T14:32:02.208Z,7.60